Time;durP1;ratioP1;P1;durP2;ratioP2;P2;SDS_P1;SDS_P2;PMS_P1;PMS_P2;Temp;Humidity;BMP_temperature;BMP_pressure;BME280_temperature;BME280_humidity;BME280_pressure;Samples;Min_cycle;Max_cycle;Signal;HPM_P1;HPM_P2
2023/01/12 00:01:23;;;;;;;9.40;2.20;;;;;;;;;;5024542;28;20200;-57
2023/01/12 00:03:50;;;;;;;12.10;2.77;;;;;;;;;;5032132;28;20295;-57
2023/01/12 00:06:18;;;;;;;14.00;2.73;;;;;;;;;;5029871;28;20207;-55
2023/01/12 00:08:46;;;;;;;8.37;2.37;;;;;;;;;;5039439;28;20200;-56
2023/01/12 00:11:13;;;;;;;14.47;3.00;;;;;;;;;;5028357;28;20200;-58
2023/01/12 00:13:40;;;;;;;9.07;2.27;;;;;;;;;;5033580;28;20208;-56
2023/01/12 00:18:58;;;;;;;15.97;2.73;;;;;;;;;;5035810;28;20341;-57
2023/01/12 00:21:26;;;;;;;8.73;2.73;;;;;;;;;;5029060;28;20201;-55
2023/01/12 00:23:53;;;;;;;16.10;3.07;;;;;;;;;;5028202;28;20192;-57
2023/01/12 00:26:20;;;;;;;10.33;2.73;;;;;;;;;;5030033;28;20211;-57
2023/01/12 00:28:47;;;;;;;10.43;2.87;;;;;;;;;;5030885;28;20208;-57
2023/01/12 00:31:15;;;;;;;11.43;2.77;;;;;;;;;;5036163;28;20199;-57
2023/01/12 00:33:43;;;;;;;9.97;2.77;;;;;;;;;;5030627;28;20215;-57
2023/01/12 00:36:12;;;;;;;10.77;2.60;;;;;;;;;;5032743;28;20222;-56
2023/01/12 00:38:39;;;;;;;14.13;2.50;;;;;;;;;;5029649;28;20348;-57
2023/01/12 00:41:06;;;;;;;11.00;2.80;;;;;;;;;;5038752;28;20348;-56
2023/01/12 00:46:20;;;;;;;10.97;2.23;;;;;;;;;;5023430;28;20232;-57
2023/01/12 00:48:47;;;;;;;14.23;2.57;;;;;;;;;;5030500;28;20204;-56
2023/01/12 00:51:14;;;;;;;11.50;3.53;;;;;;;;;;5033604;28;20192;-56
2023/01/12 00:53:41;;;;;;;13.17;3.00;;;;;;;;;;5026298;28;20205;-56
2023/01/12 00:56:08;;;;;;;11.57;2.73;;;;;;;;;;5032087;28;20215;-56
2023/01/12 00:58:35;;;;;;;11.97;2.70;;;;;;;;;;5028720;28;20200;-59
2023/01/12 01:01:06;;;;;;;12.37;2.47;;;;;;;;;;5031057;28;20207;-56
2023/01/12 01:03:35;;;;;;;8.83;2.40;;;;;;;;;;5030473;28;20243;-58
2023/01/12 01:06:03;;;;;;;14.10;2.87;;;;;;;;;;5027199;28;20195;-57
2023/01/12 01:08:30;;;;;;;12.47;2.80;;;;;;;;;;5023189;28;20211;-57
2023/01/12 01:11:03;;;;;;;13.10;3.00;;;;;;;;;;5027382;28;20215;-57
2023/01/12 01:13:31;;;;;;;9.63;2.20;;;;;;;;;;5029826;28;20201;-56
2023/01/12 01:16:00;;;;;;;10.97;2.67;;;;;;;;;;5026561;28;20211;-57
2023/01/12 01:18:27;;;;;;;6.77;2.17;;;;;;;;;;5023445;28;20266;-55
2023/01/12 01:20:56;;;;;;;10.63;2.30;;;;;;;;;;5026319;28;20228;-57
2023/01/12 01:23:23;;;;;;;10.67;2.57;;;;;;;;;;5030107;28;20206;-56
2023/01/12 01:25:51;;;;;;;10.57;2.87;;;;;;;;;;5026147;28;20205;-56
2023/01/12 01:28:18;;;;;;;13.23;2.80;;;;;;;;;;5023714;28;20203;-59
2023/01/12 01:30:45;;;;;;;16.23;2.80;;;;;;;;;;5026039;28;20200;-56
2023/01/12 01:33:13;;;;;;;7.63;2.50;;;;;;;;;;5028385;28;20273;-56
2023/01/12 01:35:40;;;;;;;10.67;2.97;;;;;;;;;;5029443;28;20206;-56
2023/01/12 01:38:10;;;;;;;11.40;2.50;;;;;;;;;;5028542;28;20239;-55
2023/01/12 01:40:42;;;;;;;13.30;3.00;;;;;;;;;;5025883;28;20212;-56
2023/01/12 01:43:10;;;;;;;12.60;3.00;;;;;;;;;;5031791;28;20210;-56
2023/01/12 01:45:37;;;;;;;12.50;2.53;;;;;;;;;;5029957;28;20204;-57
2023/01/12 01:48:06;;;;;;;14.70;3.03;;;;;;;;;;5024598;28;20204;-55
2023/01/12 01:50:35;;;;;;;11.60;2.83;;;;;;;;;;5021336;28;20211;-57
2023/01/12 01:53:04;;;;;;;13.53;2.87;;;;;;;;;;5026057;28;20200;-57
2023/01/12 01:55:34;;;;;;;14.47;2.50;;;;;;;;;;5023636;28;20196;-55
2023/01/12 01:58:03;;;;;;;16.10;3.20;;;;;;;;;;5025433;28;20207;-55
2023/01/12 02:00:30;;;;;;;9.70;2.67;;;;;;;;;;5022833;28;20232;-58
2023/01/12 02:02:58;;;;;;;15.03;3.03;;;;;;;;;;5020581;28;20208;-56
2023/01/12 02:05:27;;;;;;;11.40;2.77;;;;;;;;;;5029025;28;20215;-57
2023/01/12 02:07:54;;;;;;;14.30;2.70;;;;;;;;;;5029442;28;20196;-56
2023/01/12 02:10:21;;;;;;;8.97;2.50;;;;;;;;;;5023502;28;20207;-58
2023/01/12 02:18:28;;;;;;;9.80;2.20;;;;;;;;;;5018542;28;20195;-58
2023/01/12 02:21:00;;;;;;;10.10;3.03;;;;;;;;;;5015603;28;20232;-57
2023/01/12 02:23:52;;;;;;;12.70;2.80;;;;;;;;;;5020996;28;20204;-57
2023/01/12 02:26:35;;;;;;;13.27;2.50;;;;;;;;;;4952627;28;20430;-57
2023/01/12 02:29:20;;;;;;;11.33;2.77;;;;;;;;;;5022269;28;20200;-57
2023/01/12 02:31:53;;;;;;;14.57;2.63;;;;;;;;;;5019507;28;20204;-54
2023/01/12 02:34:29;;;;;;;11.17;2.67;;;;;;;;;;5028675;28;20200;-56
2023/01/12 02:37:03;;;;;;;11.27;2.60;;;;;;;;;;5028057;28;20346;-56
2023/01/12 02:39:31;;;;;;;13.20;2.90;;;;;;;;;;5020414;28;20212;-57
2023/01/12 02:44:53;;;;;;;9.93;1.97;;;;;;;;;;4995203;28;20209;-57
2023/01/12 02:47:26;;;;;;;12.97;2.40;;;;;;;;;;5029262;28;20193;-57
2023/01/12 02:49:54;;;;;;;7.27;2.00;;;;;;;;;;5019478;28;20206;-56
2023/01/12 02:52:24;;;;;;;14.47;2.77;;;;;;;;;;5022568;28;20326;-56
2023/01/12 02:54:52;;;;;;;10.90;2.20;;;;;;;;;;5022567;28;20200;-58
2023/01/12 02:57:21;;;;;;;10.33;2.20;;;;;;;;;;5030469;28;20202;-57
2023/01/12 02:59:49;;;;;;;10.53;2.03;;;;;;;;;;5019741;28;20201;-57
2023/01/12 03:02:19;;;;;;;9.37;2.20;;;;;;;;;;5025721;28;20226;-56
2023/01/12 03:04:47;;;;;;;8.27;2.37;;;;;;;;;;5025653;28;20212;-57
2023/01/12 03:07:38;;;;;;;9.00;2.00;;;;;;;;;;5023661;28;20204;-56
2023/01/12 03:10:33;;;;;;;13.23;2.50;;;;;;;;;;4998067;28;20222;-58
2023/01/12 03:13:04;;;;;;;8.57;2.30;;;;;;;;;;4970842;28;20204;-59
2023/01/12 03:15:32;;;;;;;11.93;2.60;;;;;;;;;;5022368;28;20228;-58
2023/01/12 03:18:00;;;;;;;9.87;2.50;;;;;;;;;;5021461;28;20208;-57
2023/01/12 03:20:31;;;;;;;12.90;2.50;;;;;;;;;;5015804;28;20341;-58
2023/01/12 03:23:01;;;;;;;11.70;2.53;;;;;;;;;;5018697;28;20201;-57
2023/01/12 03:25:28;;;;;;;12.73;2.90;;;;;;;;;;5018843;28;20204;-58
2023/01/12 03:27:57;;;;;;;10.87;2.30;;;;;;;;;;5018938;28;20211;-57
2023/01/12 03:30:25;;;;;;;12.77;2.83;;;;;;;;;;5016253;28;20208;-57
2023/01/12 03:32:52;;;;;;;14.70;2.70;;;;;;;;;;5017712;28;20204;-57
2023/01/12 03:35:23;;;;;;;12.90;2.90;;;;;;;;;;5026629;28;20219;-57
2023/01/12 03:37:55;;;;;;;9.73;2.57;;;;;;;;;;5027536;28;20240;-56
2023/01/12 03:40:23;;;;;;;13.03;2.90;;;;;;;;;;5025577;28;20212;-56
2023/01/12 03:42:52;;;;;;;11.77;2.60;;;;;;;;;;5028424;28;20202;-58
2023/01/12 03:45:24;;;;;;;9.43;2.13;;;;;;;;;;5021814;28;20207;-56
2023/01/12 03:47:53;;;;;;;11.80;2.50;;;;;;;;;;5024916;28;20195;-57
2023/01/12 03:50:22;;;;;;;10.17;2.50;;;;;;;;;;5014641;28;20216;-57
2023/01/12 03:52:49;;;;;;;12.97;2.73;;;;;;;;;;5019933;28;20196;-57
2023/01/12 03:55:21;;;;;;;11.07;2.47;;;;;;;;;;5015375;28;20212;-58
2023/01/12 03:57:49;;;;;;;13.23;2.57;;;;;;;;;;5018023;28;20298;-56
2023/01/12 04:00:17;;;;;;;11.83;2.20;;;;;;;;;;5019772;28;20200;-57
2023/01/12 04:02:44;;;;;;;13.77;2.60;;;;;;;;;;5016884;28;20205;-58
2023/01/12 04:05:12;;;;;;;13.67;2.63;;;;;;;;;;5020511;28;20220;-56
2023/01/12 04:07:39;;;;;;;11.23;2.53;;;;;;;;;;5016517;28;20502;-57
2023/01/12 04:10:07;;;;;;;13.37;2.80;;;;;;;;;;5017731;28;20212;-57
2023/01/12 04:12:35;;;;;;;10.33;2.80;;;;;;;;;;5020705;28;20212;-57
2023/01/12 04:15:03;;;;;;;7.90;2.43;;;;;;;;;;5023709;28;20197;-57
2023/01/12 04:17:30;;;;;;;9.50;2.30;;;;;;;;;;5022379;28;20251;-57
2023/01/12 04:19:57;;;;;;;11.03;2.90;;;;;;;;;;5022876;28;20390;-54
2023/01/12 04:25:09;;;;;;;10.90;2.57;;;;;;;;;;5023055;28;20207;-56
2023/01/12 04:27:41;;;;;;;11.20;2.53;;;;;;;;;;5019013;28;20200;-57
2023/01/12 04:30:09;;;;;;;11.63;2.40;;;;;;;;;;5019622;28;20205;-57
2023/01/12 04:32:36;;;;;;;9.67;2.30;;;;;;;;;;5020551;28;20205;-55
2023/01/12 04:35:04;;;;;;;10.37;2.23;;;;;;;;;;5029587;28;20204;-55
2023/01/12 04:37:32;;;;;;;9.83;2.27;;;;;;;;;;5027214;28;20246;-56
2023/01/12 04:39:59;;;;;;;12.97;2.77;;;;;;;;;;5030503;28;20204;-57
2023/01/12 04:45:12;;;;;;;10.30;2.63;;;;;;;;;;5024302;28;20274;-58
2023/01/12 04:47:39;;;;;;;16.83;2.80;;;;;;;;;;5019786;28;20215;-56
2023/01/12 04:50:07;;;;;;;14.03;2.90;;;;;;;;;;5022523;28;20207;-56
2023/01/12 04:52:35;;;;;;;10.30;2.67;;;;;;;;;;5024447;28;20319;-56
2023/01/12 04:55:02;;;;;;;10.20;2.40;;;;;;;;;;5021771;28;20253;-59
2023/01/12 04:57:29;;;;;;;11.87;2.70;;;;;;;;;;5020516;28;20204;-57
2023/01/12 04:59:57;;;;;;;8.07;2.17;;;;;;;;;;5020049;28;20207;-56
2023/01/12 05:02:25;;;;;;;14.80;3.63;;;;;;;;;;5027710;28;20224;-58
2023/01/12 05:04:52;;;;;;;17.67;3.10;;;;;;;;;;5024029;28;20207;-57
2023/01/12 05:07:19;;;;;;;18.13;3.27;;;;;;;;;;5021563;28;20212;-56
2023/01/12 05:12:31;;;;;;;11.60;2.10;;;;;;;;;;5029443;28;20211;-56
2023/01/12 05:14:58;;;;;;;7.67;2.20;;;;;;;;;;5030998;28;20192;-58
2023/01/12 05:17:27;;;;;;;13.70;3.07;;;;;;;;;;5030182;28;20211;-58
2023/01/12 05:19:54;;;;;;;13.93;2.50;;;;;;;;;;5031143;28;20232;-57
2023/01/12 05:22:21;;;;;;;10.63;2.40;;;;;;;;;;5028680;28;20303;-56
2023/01/12 05:24:48;;;;;;;8.77;2.50;;;;;;;;;;5027660;28;20205;-56
2023/01/12 05:27:16;;;;;;;9.53;2.80;;;;;;;;;;5033695;28;20202;-57
2023/01/12 05:29:44;;;;;;;13.70;2.90;;;;;;;;;;5030018;28;20223;-57
2023/01/12 05:32:11;;;;;;;13.37;2.53;;;;;;;;;;5040244;28;20203;-56
2023/01/12 05:34:40;;;;;;;10.07;2.73;;;;;;;;;;5028754;28;20208;-58
2023/01/12 05:37:07;;;;;;;13.93;2.73;;;;;;;;;;5028863;28;20267;-55
2023/01/12 05:39:34;;;;;;;13.87;3.57;;;;;;;;;;5028431;28;20200;-58
2023/01/12 05:44:46;;;;;;;10.57;2.90;;;;;;;;;;5029549;28;20333;-57
2023/01/12 05:47:13;;;;;;;10.87;2.60;;;;;;;;;;5024353;28;20213;-57
2023/01/12 05:49:42;;;;;;;8.33;2.67;;;;;;;;;;5026911;28;20212;-57
2023/01/12 05:52:09;;;;;;;11.97;2.73;;;;;;;;;;5030927;28;20293;-57
2023/01/12 05:54:36;;;;;;;12.73;3.00;;;;;;;;;;5023551;28;20211;-57
2023/01/12 05:57:04;;;;;;;19.00;2.97;;;;;;;;;;5026907;28;20244;-57
2023/01/12 05:59:31;;;;;;;11.17;2.57;;;;;;;;;;5033278;28;20215;-58
2023/01/12 06:01:59;;;;;;;15.07;3.23;;;;;;;;;;5028744;28;20220;-56
2023/01/12 06:04:27;;;;;;;13.00;2.80;;;;;;;;;;5026713;28;20207;-57
2023/01/12 06:06:56;;;;;;;13.00;2.67;;;;;;;;;;5021889;28;20200;-57
2023/01/12 06:09:23;;;;;;;14.47;2.97;;;;;;;;;;5019308;28;20230;-57
2023/01/12 06:14:36;;;;;;;17.47;3.10;;;;;;;;;;5028731;28;20195;-56
2023/01/12 06:17:03;;;;;;;12.80;3.03;;;;;;;;;;5031866;28;20196;-57
2023/01/12 06:19:30;;;;;;;11.07;2.73;;;;;;;;;;5024703;28;20205;-57
2023/01/12 06:21:59;;;;;;;11.23;2.50;;;;;;;;;;5027793;28;20224;-54
2023/01/12 06:24:27;;;;;;;12.43;2.40;;;;;;;;;;5031478;28;20196;-57
2023/01/12 06:26:54;;;;;;;15.73;2.73;;;;;;;;;;5026076;28;20212;-57
2023/01/12 06:29:22;;;;;;;11.70;2.90;;;;;;;;;;5035944;28;20224;-59
2023/01/12 06:31:49;;;;;;;14.70;2.90;;;;;;;;;;5026322;28;20203;-57
2023/01/12 06:34:16;;;;;;;9.70;2.00;;;;;;;;;;5044567;28;20231;-56
2023/01/12 06:36:43;;;;;;;9.03;2.43;;;;;;;;;;5029462;28;20242;-55
2023/01/12 06:39:13;;;;;;;9.57;2.47;;;;;;;;;;5032980;28;20215;-57
2023/01/12 06:44:25;;;;;;;12.53;2.33;;;;;;;;;;5032629;28;20350;-56
2023/01/12 06:46:53;;;;;;;12.33;2.20;;;;;;;;;;5026989;28;20208;-56
2023/01/12 06:49:20;;;;;;;10.77;2.17;;;;;;;;;;5031018;28;20192;-57
2023/01/12 06:51:50;;;;;;;7.97;2.40;;;;;;;;;;5032254;28;20551;-57
2023/01/12 06:54:18;;;;;;;9.43;2.50;;;;;;;;;;5030825;28;20212;-58
2023/01/12 06:56:45;;;;;;;13.27;2.47;;;;;;;;;;5029925;28;20255;-58
2023/01/12 06:59:13;;;;;;;9.63;2.43;;;;;;;;;;5033109;28;20211;-58
2023/01/12 07:01:41;;;;;;;11.00;2.63;;;;;;;;;;5039981;28;20317;-57
2023/01/12 07:04:08;;;;;;;10.37;2.33;;;;;;;;;;5027345;28;20196;-57
2023/01/12 07:06:36;;;;;;;10.27;2.50;;;;;;;;;;5028514;28;20290;-57
2023/01/12 07:09:04;;;;;;;9.37;2.30;;;;;;;;;;5027556;28;20258;-57
2023/01/12 07:11:33;;;;;;;5.10;2.07;;;;;;;;;;5034446;28;20246;-57
2023/01/12 07:14:00;;;;;;;8.50;2.47;;;;;;;;;;5041060;28;20200;-57
2023/01/12 07:16:28;;;;;;;11.77;2.43;;;;;;;;;;5040777;28;20230;-58
2023/01/12 07:18:55;;;;;;;11.57;3.03;;;;;;;;;;5029995;28;20299;-56
2023/01/12 07:21:22;;;;;;;8.60;2.30;;;;;;;;;;5032979;28;20212;-58
2023/01/12 07:23:50;;;;;;;9.37;1.90;;;;;;;;;;5027342;28;20208;-57
2023/01/12 07:26:17;;;;;;;11.43;2.57;;;;;;;;;;5028638;28;20223;-58
2023/01/12 07:28:46;;;;;;;6.90;1.93;;;;;;;;;;5031421;28;20195;-55
2023/01/12 07:31:13;;;;;;;9.90;2.40;;;;;;;;;;5037435;28;20227;-57
2023/01/12 07:33:40;;;;;;;6.70;2.03;;;;;;;;;;5038049;28;20208;-57
2023/01/12 07:36:10;;;;;;;7.47;2.13;;;;;;;;;;5023784;28;20196;-58
2023/01/12 07:38:37;;;;;;;9.87;2.27;;;;;;;;;;5025959;28;20243;-57
2023/01/12 07:42:21;;;;;;;9.60;2.40;;;;;;;;;;5027358;28;20204;-55
2023/01/12 07:43:54;;;;;;;10.47;2.47;;;;;;;;;;5028361;28;20203;-58
2023/01/12 07:46:21;;;;;;;6.70;2.20;;;;;;;;;;5029561;28;20296;-58
2023/01/12 07:48:49;;;;;;;10.97;2.03;;;;;;;;;;5031148;28;20270;-57
2023/01/12 07:51:16;;;;;;;9.97;2.20;;;;;;;;;;5026866;28;20220;-58
2023/01/12 07:53:43;;;;;;;11.13;2.30;;;;;;;;;;5027789;28;20208;-58
2023/01/12 07:56:14;;;;;;;9.63;2.70;;;;;;;;;;5031438;28;20196;-58
2023/01/12 07:58:42;;;;;;;11.00;2.03;;;;;;;;;;5027703;28;20204;-57
2023/01/12 08:01:10;;;;;;;8.07;2.30;;;;;;;;;;5030972;28;20211;-57
2023/01/12 08:03:39;;;;;;;9.30;2.23;;;;;;;;;;5042872;28;20293;-57
2023/01/12 08:06:06;;;;;;;8.83;2.13;;;;;;;;;;5032905;28;20200;-59
2023/01/12 08:08:34;;;;;;;10.80;1.90;;;;;;;;;;5021178;28;20205;-57
2023/01/12 08:11:02;;;;;;;10.93;2.83;;;;;;;;;;5023214;28;20208;-57
2023/01/12 08:13:29;;;;;;;11.00;2.30;;;;;;;;;;5031729;28;20196;-59
2023/01/12 08:15:57;;;;;;;9.40;2.07;;;;;;;;;;5030214;28;20214;-57
2023/01/12 08:18:28;;;;;;;8.00;2.60;;;;;;;;;;5030679;28;20204;-56
2023/01/12 08:20:58;;;;;;;12.43;2.77;;;;;;;;;;5032320;28;20192;-57
2023/01/12 08:23:29;;;;;;;9.90;1.93;;;;;;;;;;5034749;28;20235;-57
2023/01/12 08:25:58;;;;;;;8.13;2.00;;;;;;;;;;5039124;28;20781;-57
2023/01/12 08:28:27;;;;;;;11.67;2.77;;;;;;;;;;5025380;28;20200;-58
2023/01/12 08:30:54;;;;;;;12.20;2.40;;;;;;;;;;5019402;28;20196;-57
2023/01/12 08:33:22;;;;;;;11.13;2.30;;;;;;;;;;5034538;28;20197;-58
2023/01/12 08:35:51;;;;;;;8.90;2.13;;;;;;;;;;5037985;28;20208;-56
2023/01/12 08:38:18;;;;;;;12.70;2.50;;;;;;;;;;5036155;28;20243;-58
2023/01/12 08:46:20;;;;;;;11.37;2.20;;;;;;;;;;5027019;28;20236;-58
2023/01/12 08:48:47;;;;;;;11.70;2.33;;;;;;;;;;5032572;28;20205;-59
2023/01/12 08:51:16;;;;;;;11.17;2.50;;;;;;;;;;5028366;28;20246;-56
2023/01/12 08:53:43;;;;;;;13.57;2.43;;;;;;;;;;5033159;28;20262;-58
2023/01/12 08:56:11;;;;;;;9.10;2.40;;;;;;;;;;5029827;28;20207;-58
2023/01/12 08:58:38;;;;;;;8.57;1.87;;;;;;;;;;5026362;28;20204;-57
2023/01/12 09:01:09;;;;;;;10.63;2.00;;;;;;;;;;5030608;28;20203;-58
2023/01/12 09:03:36;;;;;;;8.37;2.13;;;;;;;;;;5027024;28;20224;-58
2023/01/12 09:06:10;;;;;;;9.10;2.10;;;;;;;;;;5037011;28;20204;-59
2023/01/12 09:08:39;;;;;;;12.87;2.00;;;;;;;;;;5033374;28;20216;-58
2023/01/12 09:11:07;;;;;;;10.00;2.10;;;;;;;;;;5029580;28;20207;-58
2023/01/12 09:13:34;;;;;;;10.00;2.03;;;;;;;;;;5028684;28;20204;-58
2023/01/12 09:16:05;;;;;;;9.17;1.80;;;;;;;;;;5036477;28;20210;-58
2023/01/12 09:18:33;;;;;;;8.60;1.70;;;;;;;;;;5032857;28;20216;-59
2023/01/12 09:21:02;;;;;;;8.93;2.03;;;;;;;;;;5029754;28;20207;-59
2023/01/12 09:23:29;;;;;;;6.97;1.60;;;;;;;;;;5023797;28;20224;-59
2023/01/12 09:25:57;;;;;;;5.60;1.50;;;;;;;;;;5031183;28;20228;-57
2023/01/12 09:28:25;;;;;;;8.73;2.10;;;;;;;;;;5035086;28;20204;-58
2023/01/12 09:30:52;;;;;;;5.23;1.57;;;;;;;;;;5039870;28;20204;-58
2023/01/12 09:33:20;;;;;;;8.37;1.67;;;;;;;;;;5027379;28;20196;-58
2023/01/12 09:35:48;;;;;;;6.53;1.70;;;;;;;;;;5028983;28;20208;-57
2023/01/12 09:38:16;;;;;;;6.00;1.70;;;;;;;;;;5029747;28;20235;-58
2023/01/12 09:40:44;;;;;;;5.73;1.80;;;;;;;;;;5039051;28;20209;-58
2023/01/12 09:48:49;;;;;;;4.23;1.60;;;;;;;;;;5013040;28;20219;-57
2023/01/12 09:51:20;;;;;;;4.77;1.77;;;;;;;;;;5031520;28;20200;-58
2023/01/12 09:53:47;;;;;;;2.77;1.20;;;;;;;;;;5032469;28;20231;-54
2023/01/12 09:56:16;;;;;;;9.60;2.27;;;;;;;;;;5031689;28;20211;-56
2023/01/12 09:59:02;;;;;;;5.77;1.53;;;;;;;;;;5041231;28;20204;-55
2023/01/12 10:01:32;;;;;;;5.00;1.27;;;;;;;;;;5029858;28;20211;-57
2023/01/12 10:04:00;;;;;;;8.53;2.00;;;;;;;;;;5034670;28;20224;-59
2023/01/12 10:06:27;;;;;;;6.23;1.57;;;;;;;;;;5034070;28;20290;-58
2023/01/12 10:08:56;;;;;;;5.43;1.37;;;;;;;;;;5030649;28;20287;-56
2023/01/12 10:11:28;;;;;;;8.43;1.57;;;;;;;;;;5040595;28;20203;-58
2023/01/12 10:14:13;;;;;;;7.93;1.53;;;;;;;;;;5032831;28;20200;-56
2023/01/12 10:16:44;;;;;;;5.43;1.33;;;;;;;;;;5033561;28;20208;-59
2023/01/12 10:19:16;;;;;;;4.90;1.60;;;;;;;;;;5036504;28;20219;-57
2023/01/12 10:21:43;;;;;;;3.27;1.33;;;;;;;;;;5037924;28;20206;-58
2023/01/12 10:24:12;;;;;;;7.23;1.57;;;;;;;;;;5035081;28;20228;-58
2023/01/12 10:26:42;;;;;;;6.27;1.50;;;;;;;;;;5038911;28;20204;-56
2023/01/12 10:29:10;;;;;;;5.73;1.50;;;;;;;;;;5034763;28;20212;-59
2023/01/12 10:31:39;;;;;;;6.47;1.57;;;;;;;;;;5021989;28;20291;-56
2023/01/12 10:34:07;;;;;;;4.40;1.30;;;;;;;;;;5035055;28;20192;-58
2023/01/12 10:36:35;;;;;;;4.17;1.30;;;;;;;;;;5021553;28;20208;-55
2023/01/12 10:39:03;;;;;;;3.87;1.20;;;;;;;;;;5035137;28;20204;-57
2023/01/12 10:41:31;;;;;;;8.87;1.70;;;;;;;;;;5038696;28;20218;-59
2023/01/12 10:44:13;;;;;;;5.07;1.30;;;;;;;;;;5038158;28;20221;-57
2023/01/12 10:46:41;;;;;;;6.10;1.50;;;;;;;;;;5035346;28;20199;-57
2023/01/12 10:49:19;;;;;;;7.50;1.47;;;;;;;;;;5031622;28;20211;-57
2023/01/12 10:51:53;;;;;;;3.57;1.50;;;;;;;;;;5037435;28;20203;-59
2023/01/12 10:54:23;;;;;;;3.67;1.30;;;;;;;;;;5036879;28;20306;-58
2023/01/12 10:56:58;;;;;;;6.77;1.30;;;;;;;;;;5034798;28;20203;-57
2023/01/12 10:59:28;;;;;;;1.97;0.83;;;;;;;;;;5040629;28;20366;-59
2023/01/12 11:02:12;;;;;;;2.73;0.90;;;;;;;;;;5041763;28;20212;-58
2023/01/12 11:04:40;;;;;;;3.53;1.10;;;;;;;;;;5038782;28;20212;-57
2023/01/12 11:07:10;;;;;;;2.53;1.20;;;;;;;;;;5021421;28;20197;-58
2023/01/12 11:09:37;;;;;;;2.00;0.90;;;;;;;;;;5030387;28;20262;-58
2023/01/12 11:12:05;;;;;;;4.10;1.00;;;;;;;;;;5039236;28;20200;-58
2023/01/12 11:14:34;;;;;;;3.40;0.90;;;;;;;;;;5035116;28;20207;-58
2023/01/12 11:17:11;;;;;;;2.10;0.80;;;;;;;;;;5037090;28;20212;-58
2023/01/12 11:19:42;;;;;;;2.97;0.80;;;;;;;;;;5042293;28;20203;-57
2023/01/12 11:22:12;;;;;;;3.37;1.00;;;;;;;;;;5018635;28;20211;-57
2023/01/12 11:24:43;;;;;;;2.27;0.70;;;;;;;;;;5035628;28;20228;-56
2023/01/12 11:27:13;;;;;;;1.50;0.83;;;;;;;;;;5035997;28;20216;-56
2023/01/12 11:29:44;;;;;;;2.07;0.70;;;;;;;;;;5042747;28;20249;-57
2023/01/12 11:32:17;;;;;;;2.63;0.97;;;;;;;;;;5041316;28;20207;-56
2023/01/12 11:34:53;;;;;;;2.10;0.80;;;;;;;;;;5036984;28;20204;-58
2023/01/12 11:37:20;;;;;;;1.73;0.73;;;;;;;;;;5024718;28;20274;-58
2023/01/12 11:39:51;;;;;;;2.10;0.80;;;;;;;;;;5027507;28;20287;-59
2023/01/12 11:45:08;;;;;;;2.60;0.97;;;;;;;;;;5025407;28;20211;-57
2023/01/12 11:47:38;;;;;;;2.77;1.20;;;;;;;;;;5031590;28;20223;-59
2023/01/12 11:50:07;;;;;;;4.20;1.00;;;;;;;;;;5024160;28;20254;-58
2023/01/12 11:52:35;;;;;;;4.63;1.00;;;;;;;;;;5027894;28;20207;-58
2023/01/12 11:55:02;;;;;;;1.60;1.07;;;;;;;;;;5036245;28;20203;-58
2023/01/12 11:57:39;;;;;;;3.00;1.10;;;;;;;;;;5036250;28;20208;-58
2023/01/12 12:00:15;;;;;;;2.57;0.93;;;;;;;;;;5035520;28;20212;-58
2023/01/12 12:02:49;;;;;;;3.90;1.57;;;;;;;;;;5041493;28;20211;-58
2023/01/12 12:05:20;;;;;;;2.73;1.20;;;;;;;;;;5041848;28;20215;-58
2023/01/12 12:07:55;;;;;;;2.20;0.90;;;;;;;;;;5028643;28;20207;-59
2023/01/12 12:10:24;;;;;;;3.50;1.10;;;;;;;;;;5029759;28;20202;-57
2023/01/12 12:13:08;;;;;;;3.67;1.20;;;;;;;;;;5034265;28;20207;-55
2023/01/12 12:15:36;;;;;;;4.13;0.90;;;;;;;;;;5034372;28;20215;-58
2023/01/12 12:18:09;;;;;;;2.00;0.93;;;;;;;;;;5035912;28;20196;-58
2023/01/12 12:20:40;;;;;;;3.73;1.00;;;;;;;;;;5032787;28;20192;-59
2023/01/12 12:23:14;;;;;;;1.57;0.77;;;;;;;;;;5035316;28;20224;-57
2023/01/12 12:25:46;;;;;;;3.63;0.73;;;;;;;;;;5031745;28;20212;-58
2023/01/12 12:28:28;;;;;;;1.40;0.70;;;;;;;;;;5035236;28;20216;-57
2023/01/12 12:31:00;;;;;;;4.37;0.80;;;;;;;;;;5027367;28;20210;-59
2023/01/12 12:33:40;;;;;;;2.10;0.83;;;;;;;;;;5034203;28;20192;-56
2023/01/12 12:36:13;;;;;;;2.13;0.90;;;;;;;;;;5028704;28;20208;-59
2023/01/12 12:38:48;;;;;;;1.30;0.77;;;;;;;;;;5029742;28;20231;-57
2023/01/12 12:47:08;;;;;;;1.87;0.53;;;;;;;;;;5032320;28;20235;-59
2023/01/12 12:49:38;;;;;;;4.20;0.97;;;;;;;;;;5034916;28;20204;-59
2023/01/12 12:52:06;;;;;;;0.93;0.67;;;;;;;;;;5032732;28;20400;-57
2023/01/12 12:54:33;;;;;;;2.20;1.00;;;;;;;;;;5030895;28;20200;-58
2023/01/12 12:57:00;;;;;;;1.40;1.07;;;;;;;;;;5033286;28;20204;-57
2023/01/12 12:59:52;;;;;;;1.50;1.00;;;;;;;;;;5035631;28;20211;-59
2023/01/12 13:02:32;;;;;;;3.27;1.50;;;;;;;;;;5033878;28;20243;-58
2023/01/12 13:05:02;;;;;;;2.30;1.17;;;;;;;;;;5027679;28;20274;-55
2023/01/12 13:07:29;;;;;;;2.20;1.53;;;;;;;;;;5024027;28;20201;-56
2023/01/12 13:10:11;;;;;;;3.40;0.90;;;;;;;;;;5025017;28;20286;-58
2023/01/12 13:12:38;;;;;;;1.33;0.90;;;;;;;;;;5008478;28;20210;-53
2023/01/12 13:15:16;;;;;;;1.60;0.87;;;;;;;;;;5024425;28;20211;-57
2023/01/12 13:17:45;;;;;;;1.63;0.90;;;;;;;;;;5028532;28;20208;-55
2023/01/12 13:20:45;;;;;;;2.00;1.00;;;;;;;;;;5028303;28;20208;-57
2023/01/12 13:23:31;;;;;;;2.10;1.07;;;;;;;;;;5035373;28;20208;-59
2023/01/12 13:26:00;;;;;;;2.83;1.30;;;;;;;;;;5028563;28;20210;-57
2023/01/12 13:28:28;;;;;;;2.20;1.10;;;;;;;;;;5031790;28;20627;-58
2023/01/12 13:30:55;;;;;;;3.33;1.17;;;;;;;;;;5022918;28;20209;-56
2023/01/12 13:33:24;;;;;;;1.23;0.90;;;;;;;;;;5026728;28;20200;-60
2023/01/12 13:36:02;;;;;;;3.23;1.20;;;;;;;;;;5035148;28;20224;-56
2023/01/12 13:38:35;;;;;;;3.90;1.20;;;;;;;;;;5027743;28;20251;-58
2023/01/12 13:41:12;;;;;;;2.60;0.90;;;;;;;;;;5036154;28;20207;-57
2023/01/12 13:43:39;;;;;;;3.67;1.23;;;;;;;;;;5033510;28;20216;-58
2023/01/12 13:46:13;;;;;;;1.80;0.80;;;;;;;;;;5031022;28;20199;-59
2023/01/12 13:48:43;;;;;;;2.30;1.20;;;;;;;;;;5032460;28;20665;-59
2023/01/12 13:51:14;;;;;;;2.20;1.10;;;;;;;;;;5021676;28;20205;-58
2023/01/12 13:53:42;;;;;;;2.40;1.10;;;;;;;;;;5031111;28;20215;-58
2023/01/12 13:56:19;;;;;;;2.30;1.00;;;;;;;;;;5022598;28;20426;-58
2023/01/12 13:58:50;;;;;;;4.87;1.50;;;;;;;;;;5028224;28;20211;-57
2023/01/12 14:01:19;;;;;;;4.07;1.10;;;;;;;;;;5045345;28;20270;-57
2023/01/12 14:03:55;;;;;;;3.27;1.87;;;;;;;;;;5032871;28;20435;-57
2023/01/12 14:06:28;;;;;;;2.47;1.30;;;;;;;;;;5044388;28;20210;-59
2023/01/12 14:09:03;;;;;;;3.70;1.07;;;;;;;;;;5020280;28;20215;-57
2023/01/12 14:11:39;;;;;;;4.10;1.20;;;;;;;;;;5025349;28;20202;-56
2023/01/12 14:19:49;;;;;;;3.07;1.23;;;;;;;;;;5030528;28;20199;-58
2023/01/12 14:22:18;;;;;;;3.20;1.07;;;;;;;;;;5029272;28;20204;-57
2023/01/12 14:24:45;;;;;;;4.50;1.00;;;;;;;;;;5031418;28;20222;-58
2023/01/12 14:27:17;;;;;;;3.80;1.30;;;;;;;;;;5037411;28;20207;-56
2023/01/12 14:29:44;;;;;;;3.10;1.00;;;;;;;;;;5037643;28;20214;-56
2023/01/12 14:32:13;;;;;;;4.83;1.10;;;;;;;;;;5031671;28;20208;-58
2023/01/12 14:34:45;;;;;;;2.20;1.23;;;;;;;;;;5024660;28;20197;-58
2023/01/12 14:37:24;;;;;;;4.23;1.10;;;;;;;;;;5028619;28;20239;-58
2023/01/12 14:39:51;;;;;;;3.97;1.30;;;;;;;;;;5027916;28;20203;-56
2023/01/12 14:48:16;;;;;;;4.20;1.27;;;;;;;;;;5030385;28;20187;-57
2023/01/12 14:50:58;;;;;;;4.23;1.10;;;;;;;;;;5023956;28;20208;-58
2023/01/12 14:53:26;;;;;;;2.50;0.83;;;;;;;;;;5024151;28;20196;-58
2023/01/12 14:55:53;;;;;;;3.37;1.07;;;;;;;;;;5022750;28;20226;-56
2023/01/12 14:58:22;;;;;;;1.33;0.90;;;;;;;;;;5029188;28;20201;-55
2023/01/12 15:00:49;;;;;;;1.67;0.90;;;;;;;;;;5027938;28;20208;-56
2023/01/12 15:03:20;;;;;;;3.17;1.30;;;;;;;;;;5029625;28;20204;-57
2023/01/12 15:05:51;;;;;;;5.10;1.30;;;;;;;;;;5023953;28;20238;-57
2023/01/12 15:08:25;;;;;;;2.33;0.97;;;;;;;;;;5025843;28;20195;-57
2023/01/12 15:10:56;;;;;;;3.33;1.10;;;;;;;;;;5017579;28;20521;-58
2023/01/12 15:13:27;;;;;;;2.63;1.10;;;;;;;;;;5025881;28;20204;-56
2023/01/12 15:27:02;;;;;;;2.63;0.90;;;;;;;;;;5025398;28;20490;-56
2023/01/12 15:29:31;;;;;;;2.63;0.90;;;;;;;;;;5021719;28;20206;-56
2023/01/12 15:31:58;;;;;;;4.67;1.30;;;;;;;;;;5022738;28;20196;-58
2023/01/12 15:34:25;;;;;;;2.27;1.10;;;;;;;;;;5022824;28;20197;-57
2023/01/12 15:36:52;;;;;;;4.33;1.03;;;;;;;;;;5021577;28;20244;-57
2023/01/12 15:39:20;;;;;;;3.00;1.07;;;;;;;;;;5023852;28;20279;-56
2023/01/12 15:44:37;;;;;;;3.63;1.00;;;;;;;;;;5031857;28;20337;-57
2023/01/12 15:47:04;;;;;;;2.97;0.97;;;;;;;;;;5020775;28;20200;-57
2023/01/12 15:49:31;;;;;;;3.57;1.77;;;;;;;;;;5025355;28;20208;-56
2023/01/12 15:51:59;;;;;;;6.53;1.67;;;;;;;;;;5020924;28;20200;-56
2023/01/12 15:54:26;;;;;;;3.70;1.13;;;;;;;;;;5023286;28;20537;-57
2023/01/12 15:56:56;;;;;;;2.60;1.07;;;;;;;;;;5019215;28;20204;-56
2023/01/12 15:59:23;;;;;;;3.77;1.37;;;;;;;;;;5027147;28;20204;-57
2023/01/12 16:01:52;;;;;;;4.03;1.43;;;;;;;;;;5023008;28;20200;-57
2023/01/12 16:04:21;;;;;;;2.80;1.47;;;;;;;;;;5027889;28;20220;-57
2023/01/12 16:06:48;;;;;;;3.13;1.07;;;;;;;;;;5032661;28;20293;-57
2023/01/12 16:09:15;;;;;;;2.80;1.03;;;;;;;;;;5031217;28;20214;-57